Time;durP1;ratioP1;P1;durP2;ratioP2;P2;SDS_P1;SDS_P2;PMS_P1;PMS_P2;Temp;Humidity;BMP_temperature;BMP_pressure;BME280_temperature;BME280_humidity;BME280_pressure;Samples;Min_cycle;Max_cycle;Signal;HPM_P1;HPM_P2
2021/05/15 00:00:30;;;;;;;8.88;5.38;;;;;;;;;;4926211;28;20157;-61
2021/05/15 00:02:57;;;;;;;11.30;5.38;;;;;;;;;;4927056;28;20039;-62
2021/05/15 00:05:23;;;;;;;9.10;4.30;;;;;;;;;;4925458;28;20035;-61
2021/05/15 00:07:49;;;;;;;9.60;5.07;;;;;;;;;;4928567;28;20044;-61
2021/05/15 00:10:17;;;;;;;9.23;5.00;;;;;;;;;;4926946;28;20495;-61
2021/05/15 00:12:45;;;;;;;13.07;4.90;;;;;;;;;;4924510;28;20031;-61
2021/05/15 00:15:12;;;;;;;11.25;5.35;;;;;;;;;;4942558;28;20511;-60
2021/05/15 00:17:40;;;;;;;7.60;4.45;;;;;;;;;;4925630;28;20960;-60
2021/05/15 00:20:12;;;;;;;10.07;4.80;;;;;;;;;;4910114;28;20035;-60
2021/05/15 00:22:38;;;;;;;9.05;4.30;;;;;;;;;;4926240;28;20039;-61
2021/05/15 00:25:04;;;;;;;9.38;5.20;;;;;;;;;;4926822;28;20023;-61
2021/05/15 00:27:30;;;;;;;7.95;4.95;;;;;;;;;;4924175;28;20027;-61
2021/05/15 00:29:59;;;;;;;10.55;5.00;;;;;;;;;;4924359;28;20050;-60
2021/05/15 00:32:24;;;;;;;9.77;4.70;;;;;;;;;;4896570;29;20914;-61
2021/05/15 00:34:52;;;;;;;9.77;5.28;;;;;;;;;;4898755;29;20039;-61
2021/05/15 00:37:20;;;;;;;8.30;4.47;;;;;;;;;;4923999;28;20062;-60
2021/05/15 00:39:45;;;;;;;9.45;4.30;;;;;;;;;;4912288;28;20039;-61
2021/05/15 00:42:22;;;;;;;8.73;4.80;;;;;;;;;;4922353;28;20071;-62
2021/05/15 00:44:49;;;;;;;8.18;4.22;;;;;;;;;;4926641;28;20509;-61
2021/05/15 00:47:16;;;;;;;8.27;4.35;;;;;;;;;;4910100;28;20039;-60
2021/05/15 00:49:45;;;;;;;7.85;4.95;;;;;;;;;;4927221;28;20625;-60
2021/05/15 00:52:11;;;;;;;16.17;5.55;;;;;;;;;;4925803;28;20027;-61
2021/05/15 00:54:38;;;;;;;11.13;5.03;;;;;;;;;;4925358;28;20046;-60
2021/05/15 00:57:05;;;;;;;11.15;4.95;;;;;;;;;;4923775;28;20031;-60
2021/05/15 00:59:30;;;;;;;8.93;4.20;;;;;;;;;;4911320;29;20039;-61
2021/05/15 01:01:56;;;;;;;11.63;5.53;;;;;;;;;;4927783;28;20043;-60
2021/05/15 01:04:22;;;;;;;15.40;4.25;;;;;;;;;;4925719;28;20090;-62
2021/05/15 01:06:51;;;;;;;10.75;5.47;;;;;;;;;;4927573;28;20112;-59
2021/05/15 01:09:17;;;;;;;9.65;5.35;;;;;;;;;;4942680;28;20035;-62
2021/05/15 01:11:45;;;;;;;8.80;4.47;;;;;;;;;;4925165;28;20031;-60
2021/05/15 01:14:11;;;;;;;12.32;4.97;;;;;;;;;;4927791;28;20090;-61
2021/05/15 01:16:36;;;;;;;10.05;5.38;;;;;;;;;;4912717;29;20118;-60
2021/05/15 01:19:05;;;;;;;14.63;4.82;;;;;;;;;;4928394;28;20087;-60
2021/05/15 01:21:32;;;;;;;12.65;4.65;;;;;;;;;;4928485;28;20060;-60
2021/05/15 01:23:58;;;;;;;11.35;5.60;;;;;;;;;;4928602;28;20189;-60
2021/05/15 01:26:25;;;;;;;9.73;5.43;;;;;;;;;;4932291;28;20076;-62
2021/05/15 01:28:52;;;;;;;11.70;4.78;;;;;;;;;;4927501;28;20028;-60
2021/05/15 01:31:21;;;;;;;10.40;4.80;;;;;;;;;;4933592;28;20121;-61
2021/05/15 01:33:49;;;;;;;10.02;4.70;;;;;;;;;;4928049;28;20073;-62
2021/05/15 01:36:19;;;;;;;12.20;5.90;;;;;;;;;;4929829;28;20043;-60
2021/05/15 01:38:47;;;;;;;16.52;5.53;;;;;;;;;;4931134;28;20179;-61
2021/05/15 01:41:17;;;;;;;11.15;5.82;;;;;;;;;;4900807;28;20052;-61
2021/05/15 01:43:46;;;;;;;10.00;4.78;;;;;;;;;;4912910;29;21036;-61
2021/05/15 01:46:13;;;;;;;10.82;5.82;;;;;;;;;;4928666;28;20110;-61
2021/05/15 01:48:41;;;;;;;9.10;4.63;;;;;;;;;;4929486;28;20027;-61
2021/05/15 01:51:08;;;;;;;9.88;4.82;;;;;;;;;;4944060;28;20066;-61
2021/05/15 01:53:41;;;;;;;12.43;5.53;;;;;;;;;;4930977;28;20034;-60
2021/05/15 01:56:08;;;;;;;11.75;4.32;;;;;;;;;;4928741;28;21235;-61
2021/05/15 01:58:34;;;;;;;12.88;5.80;;;;;;;;;;4929679;28;20031;-61
2021/05/15 02:01:02;;;;;;;11.15;5.55;;;;;;;;;;4929184;28;21000;-60
2021/05/15 02:03:28;;;;;;;12.43;5.63;;;;;;;;;;4928043;28;20031;-61
2021/05/15 02:05:54;;;;;;;11.02;5.60;;;;;;;;;;4931463;28;20240;-61
2021/05/15 02:08:20;;;;;;;13.93;6.07;;;;;;;;;;4915441;29;20681;-61
2021/05/15 02:10:47;;;;;;;7.32;4.50;;;;;;;;;;4927750;28;20310;-61
2021/05/15 02:13:13;;;;;;;9.68;5.45;;;;;;;;;;4943362;28;20029;-61
2021/05/15 02:15:41;;;;;;;11.48;5.43;;;;;;;;;;4930536;28;20122;-62
2021/05/15 02:18:08;;;;;;;16.40;5.45;;;;;;;;;;4916498;28;20043;-61
2021/05/15 02:20:34;;;;;;;15.45;6.03;;;;;;;;;;4927751;28;20039;-61
2021/05/15 02:22:59;;;;;;;11.63;5.65;;;;;;;;;;4929480;28;20038;-60
2021/05/15 02:25:25;;;;;;;13.15;5.30;;;;;;;;;;4926416;28;20440;-61
2021/05/15 02:27:54;;;;;;;8.50;4.50;;;;;;;;;;4930639;28;20031;-60
2021/05/15 02:30:21;;;;;;;13.13;5.38;;;;;;;;;;4929069;28;20059;-60
2021/05/15 02:32:47;;;;;;;11.70;5.03;;;;;;;;;;4929256;28;20034;-61
2021/05/15 02:35:12;;;;;;;13.20;5.05;;;;;;;;;;4916487;28;20420;-60
2021/05/15 02:37:39;;;;;;;12.40;5.68;;;;;;;;;;4927712;28;20107;-60
2021/05/15 02:40:06;;;;;;;13.65;5.82;;;;;;;;;;4925186;28;20039;-61
2021/05/15 02:42:32;;;;;;;16.23;5.43;;;;;;;;;;4924636;28;20043;-59
2021/05/15 02:44:57;;;;;;;13.52;5.25;;;;;;;;;;4927093;28;20032;-60
2021/05/15 02:47:23;;;;;;;11.50;5.05;;;;;;;;;;4921480;28;20031;-60
2021/05/15 02:49:49;;;;;;;11.75;4.95;;;;;;;;;;4924644;28;20727;-60
2021/05/15 02:52:14;;;;;;;11.35;5.50;;;;;;;;;;4926375;28;20044;-60
2021/05/15 02:54:42;;;;;;;12.35;5.45;;;;;;;;;;4925712;28;20031;-60
2021/05/15 02:57:08;;;;;;;12.18;5.32;;;;;;;;;;4923890;28;20126;-60
2021/05/15 02:59:35;;;;;;;10.20;5.32;;;;;;;;;;4929563;28;20040;-60
2021/05/15 03:02:01;;;;;;;14.43;5.05;;;;;;;;;;4924582;28;20091;-61
2021/05/15 03:04:29;;;;;;;15.10;5.65;;;;;;;;;;4927224;28;20724;-61
2021/05/15 03:06:55;;;;;;;9.68;4.68;;;;;;;;;;4925318;28;20039;-60
2021/05/15 03:09:23;;;;;;;13.25;6.13;;;;;;;;;;4927545;28;20031;-60
2021/05/15 03:11:49;;;;;;;19.10;6.32;;;;;;;;;;4939012;28;20747;-60
2021/05/15 03:14:15;;;;;;;12.40;5.82;;;;;;;;;;4923464;28;20030;-60
2021/05/15 03:16:40;;;;;;;12.23;5.70;;;;;;;;;;4922512;28;20373;-60
2021/05/15 03:19:06;;;;;;;12.90;5.15;;;;;;;;;;4926262;28;20066;-60
2021/05/15 03:21:33;;;;;;;16.23;5.85;;;;;;;;;;4921702;28;20452;-60
2021/05/15 03:24:00;;;;;;;12.82;5.00;;;;;;;;;;4912755;28;21980;-61
2021/05/15 03:26:28;;;;;;;13.82;5.75;;;;;;;;;;4920385;28;20058;-61
2021/05/15 03:28:56;;;;;;;10.98;5.47;;;;;;;;;;4925332;28;20471;-60
2021/05/15 03:31:22;;;;;;;9.43;5.40;;;;;;;;;;4923999;28;20051;-61
2021/05/15 03:33:48;;;;;;;11.00;5.15;;;;;;;;;;4924611;28;20431;-60
2021/05/15 03:36:14;;;;;;;13.05;4.97;;;;;;;;;;4924941;28;20054;-59
2021/05/15 03:38:39;;;;;;;18.00;6.10;;;;;;;;;;4907674;28;20415;-60
2021/05/15 03:41:04;;;;;;;10.25;5.10;;;;;;;;;;4909702;28;20043;-60
2021/05/15 03:43:30;;;;;;;11.05;5.68;;;;;;;;;;4923673;28;20058;-60
2021/05/15 03:45:56;;;;;;;11.25;5.30;;;;;;;;;;4940293;28;20050;-59
2021/05/15 03:48:26;;;;;;;11.85;4.93;;;;;;;;;;5236552;22;20124;-59
2021/05/15 03:50:53;;;;;;;14.55;5.15;;;;;;;;;;4977997;28;20121;-59
2021/05/15 03:56:58;;;;;;;13.25;5.28;;;;;;;;;;4978932;28;20523;-61
2021/05/15 03:59:26;;;;;;;9.73;5.18;;;;;;;;;;4948544;28;20366;-61
2021/05/15 04:01:51;;;;;;;11.77;5.55;;;;;;;;;;4963143;28;20019;-60
2021/05/15 04:04:17;;;;;;;11.48;5.25;;;;;;;;;;4961035;28;20586;-60
2021/05/15 04:06:42;;;;;;;12.07;5.55;;;;;;;;;;4963510;28;20385;-59
2021/05/15 04:09:07;;;;;;;13.88;5.25;;;;;;;;;;4956916;28;20473;-58
2021/05/15 04:11:38;;;;;;;11.45;5.50;;;;;;;;;;4950447;28;20807;-58
2021/05/15 04:14:10;;;;;;;8.48;4.72;;;;;;;;;;4961897;28;20063;-58
2021/05/15 04:19:15;;;;;;;7.85;4.80;;;;;;;;;;4960821;28;20100;-59
2021/05/15 04:21:40;;;;;;;11.38;5.63;;;;;;;;;;4975103;28;20110;-60
2021/05/15 04:24:06;;;;;;;13.80;5.93;;;;;;;;;;4974611;28;21601;-59
2021/05/15 04:30:09;;;;;;;10.18;5.00;;;;;;;;;;4977552;28;20519;-60
2021/05/15 04:32:37;;;;;;;10.73;5.85;;;;;;;;;;4959098;28;20060;-60
2021/05/15 04:35:02;;;;;;;10.90;5.53;;;;;;;;;;4975342;28;20144;-60
2021/05/15 04:37:32;;;;;;;20.40;5.32;;;;;;;;;;4976947;28;20045;-59
2021/05/15 04:39:58;;;;;;;14.40;5.88;;;;;;;;;;4961599;28;20179;-59
2021/05/15 04:42:25;;;;;;;12.52;5.63;;;;;;;;;;4962424;28;20065;-60
2021/05/15 04:44:53;;;;;;;10.40;5.80;;;;;;;;;;4977304;28;20122;-60
2021/05/15 04:47:21;;;;;;;13.27;5.50;;;;;;;;;;4970606;28;20216;-62
2021/05/15 04:49:49;;;;;;;8.88;5.07;;;;;;;;;;4975046;28;20040;-60
2021/05/15 04:52:16;;;;;;;10.50;4.72;;;;;;;;;;4977893;28;20034;-60
2021/05/15 04:54:42;;;;;;;15.35;5.88;;;;;;;;;;4965655;28;20113;-60
2021/05/15 04:57:07;;;;;;;11.20;5.47;;;;;;;;;;4968460;28;20038;-60
2021/05/15 04:59:35;;;;;;;14.00;5.05;;;;;;;;;;4979357;28;20609;-60
2021/05/15 05:02:00;;;;;;;11.38;6.90;;;;;;;;;;4978841;28;20038;-60
2021/05/15 05:04:26;;;;;;;14.32;6.60;;;;;;;;;;4978371;28;20037;-60
2021/05/15 05:06:54;;;;;;;12.57;6.65;;;;;;;;;;4980692;28;20041;-60
2021/05/15 05:09:22;;;;;;;10.30;6.15;;;;;;;;;;4979595;28;20088;-60
2021/05/15 05:11:50;;;;;;;13.35;6.13;;;;;;;;;;4978126;28;20289;-60
2021/05/15 05:14:18;;;;;;;11.25;5.63;;;;;;;;;;4967008;28;20556;-59
2021/05/15 05:16:43;;;;;;;10.57;5.70;;;;;;;;;;4966021;28;20136;-60
2021/05/15 05:19:12;;;;;;;12.10;6.15;;;;;;;;;;4966537;28;20485;-60
2021/05/15 05:21:42;;;;;;;14.50;6.32;;;;;;;;;;4960899;28;20034;-60
2021/05/15 05:24:08;;;;;;;14.25;6.40;;;;;;;;;;4978664;28;20042;-60
2021/05/15 05:26:38;;;;;;;12.98;6.25;;;;;;;;;;4976293;28;20026;-60
2021/05/15 05:29:09;;;;;;;13.15;6.07;;;;;;;;;;4978578;28;20042;-60
2021/05/15 05:31:35;;;;;;;9.90;5.45;;;;;;;;;;4983138;28;20054;-60
2021/05/15 05:34:00;;;;;;;12.30;5.85;;;;;;;;;;4977232;28;20041;-59
2021/05/15 05:36:29;;;;;;;14.02;5.85;;;;;;;;;;4979290;28;20057;-60
2021/05/15 05:38:54;;;;;;;15.95;6.18;;;;;;;;;;4982652;28;20287;-61
2021/05/15 05:41:24;;;;;;;15.15;6.45;;;;;;;;;;4959019;28;20635;-59
2021/05/15 05:43:49;;;;;;;11.20;5.85;;;;;;;;;;4979797;28;20515;-59
2021/05/15 05:46:17;;;;;;;12.50;6.00;;;;;;;;;;4965909;28;20026;-62
2021/05/15 05:48:43;;;;;;;13.32;6.18;;;;;;;;;;4977396;28;20060;-59
2021/05/15 05:51:08;;;;;;;12.43;5.60;;;;;;;;;;4978540;28;20030;-59
2021/05/15 05:53:36;;;;;;;14.23;6.70;;;;;;;;;;4963374;28;20058;-60
2021/05/15 05:56:04;;;;;;;11.25;6.13;;;;;;;;;;4961311;28;20030;-59
2021/05/15 05:58:31;;;;;;;16.33;6.20;;;;;;;;;;4979130;28;20196;-61
2021/05/15 06:01:00;;;;;;;12.93;6.45;;;;;;;;;;4976337;28;20042;-59
2021/05/15 06:03:25;;;;;;;11.63;6.72;;;;;;;;;;4978280;28;20022;-62
2021/05/15 06:05:51;;;;;;;16.38;6.68;;;;;;;;;;4977784;28;20906;-60
2021/05/15 06:08:19;;;;;;;20.27;7.15;;;;;;;;;;4979697;28;20044;-61
2021/05/15 06:10:46;;;;;;;14.52;6.95;;;;;;;;;;4961077;28;20105;-61
2021/05/15 06:13:13;;;;;;;13.05;6.65;;;;;;;;;;4964024;28;20064;-61
2021/05/15 06:15:39;;;;;;;16.02;6.93;;;;;;;;;;4969534;28;20034;-62
2021/05/15 06:18:06;;;;;;;17.00;7.80;;;;;;;;;;4977678;28;20120;-61
2021/05/15 06:20:34;;;;;;;23.38;7.97;;;;;;;;;;4976960;28;20041;-61
2021/05/15 06:22:59;;;;;;;14.48;6.75;;;;;;;;;;4967507;28;20041;-61
2021/05/15 06:25:27;;;;;;;14.40;7.53;;;;;;;;;;4976188;28;20133;-61
2021/05/15 06:27:54;;;;;;;15.98;6.85;;;;;;;;;;4965579;28;20018;-60
2021/05/15 06:30:22;;;;;;;13.05;6.35;;;;;;;;;;4976503;28;20030;-60
2021/05/15 06:32:48;;;;;;;14.00;6.95;;;;;;;;;;4979416;28;20437;-61
2021/05/15 06:35:13;;;;;;;14.48;7.18;;;;;;;;;;4977937;28;20030;-61
2021/05/15 06:37:39;;;;;;;10.13;6.65;;;;;;;;;;4978190;28;20165;-61
2021/05/15 06:40:05;;;;;;;15.57;6.65;;;;;;;;;;4960300;28;20166;-61
2021/05/15 06:42:31;;;;;;;11.57;5.95;;;;;;;;;;4959878;28;20169;-61
2021/05/15 06:44:59;;;;;;;12.90;6.40;;;;;;;;;;4965496;28;20095;-61
2021/05/15 06:47:26;;;;;;;9.85;5.38;;;;;;;;;;4965571;28;20037;-62
2021/05/15 06:49:54;;;;;;;11.93;5.72;;;;;;;;;;4952709;28;20061;-61
2021/05/15 06:52:22;;;;;;;9.68;5.90;;;;;;;;;;4962359;28;20042;-62
2021/05/15 06:54:48;;;;;;;10.60;5.85;;;;;;;;;;4976042;28;20544;-61
2021/05/15 06:57:17;;;;;;;10.73;5.75;;;;;;;;;;4960667;28;20129;-60
2021/05/15 06:59:42;;;;;;;11.05;6.07;;;;;;;;;;4978546;28;20048;-61
2021/05/15 07:02:08;;;;;;;12.45;6.47;;;;;;;;;;4974737;28;20034;-60
2021/05/15 07:04:34;;;;;;;14.75;5.93;;;;;;;;;;4975935;28;20030;-61
2021/05/15 07:07:02;;;;;;;10.63;5.68;;;;;;;;;;4964356;28;20050;-62
2021/05/15 07:09:27;;;;;;;17.27;5.80;;;;;;;;;;4975432;28;20030;-60
2021/05/15 07:11:53;;;;;;;11.57;5.95;;;;;;;;;;4958054;28;20552;-61
2021/05/15 07:14:20;;;;;;;15.70;6.07;;;;;;;;;;4954471;28;20500;-60
2021/05/15 07:16:51;;;;;;;10.38;5.93;;;;;;;;;;4971056;28;20038;-63
2021/05/15 07:19:18;;;;;;;14.50;5.60;;;;;;;;;;4971576;28;20708;-62
2021/05/15 07:21:46;;;;;;;11.60;5.68;;;;;;;;;;4936721;28;20038;-62
2021/05/15 07:24:12;;;;;;;10.77;5.72;;;;;;;;;;4959107;28;20185;-60
2021/05/15 07:26:37;;;;;;;11.98;6.43;;;;;;;;;;4967676;28;20056;-61
2021/05/15 07:29:03;;;;;;;13.52;6.30;;;;;;;;;;4976727;28;20030;-61
2021/05/15 07:31:31;;;;;;;11.60;6.13;;;;;;;;;;4974473;28;20057;-62
2021/05/15 07:33:57;;;;;;;10.07;5.80;;;;;;;;;;4960151;28;20088;-61
2021/05/15 07:36:22;;;;;;;15.82;6.65;;;;;;;;;;4977279;28;20026;-62
2021/05/15 07:38:48;;;;;;;12.57;6.70;;;;;;;;;;4978143;28;20093;-62
2021/05/15 07:41:15;;;;;;;13.48;6.40;;;;;;;;;;4975329;28;20070;-62
2021/05/15 07:43:43;;;;;;;13.38;6.10;;;;;;;;;;4974580;28;20029;-61
2021/05/15 07:46:09;;;;;;;11.95;6.75;;;;;;;;;;4976014;28;20065;-61
2021/05/15 07:48:43;;;;;;;12.80;5.93;;;;;;;;;;4978167;28;20968;-60
2021/05/15 07:51:20;;;;;;;15.18;6.47;;;;;;;;;;4975609;28;20041;-60
2021/05/15 07:53:51;;;;;;;12.93;6.35;;;;;;;;;;4971001;28;20061;-62
2021/05/15 07:56:19;;;;;;;10.60;5.05;;;;;;;;;;4967667;28;20580;-61
2021/05/15 07:58:50;;;;;;;11.13;6.00;;;;;;;;;;4960627;28;20030;-62
2021/05/15 08:01:15;;;;;;;12.65;5.85;;;;;;;;;;4970238;28;20036;-61
2021/05/15 08:03:41;;;;;;;11.05;6.97;;;;;;;;;;4969946;28;20026;-62
2021/05/15 08:06:09;;;;;;;13.70;6.55;;;;;;;;;;4967066;28;20065;-64
2021/05/15 08:08:36;;;;;;;11.27;6.25;;;;;;;;;;4975362;28;20034;-63
2021/05/15 08:11:02;;;;;;;12.40;6.72;;;;;;;;;;4974128;28;20030;-62
2021/05/15 08:13:27;;;;;;;16.60;6.35;;;;;;;;;;4977019;28;20969;-62
2021/05/15 08:15:53;;;;;;;16.83;7.15;;;;;;;;;;4975494;28;20039;-62
2021/05/15 08:18:19;;;;;;;12.30;6.72;;;;;;;;;;4959477;28;20045;-62
2021/05/15 08:20:44;;;;;;;13.75;6.47;;;;;;;;;;4969422;28;20030;-62
2021/05/15 08:23:15;;;;;;;16.42;6.82;;;;;;;;;;4954738;28;20103;-63
2021/05/15 08:25:42;;;;;;;13.38;7.05;;;;;;;;;;4933952;28;20049;-62
2021/05/15 08:28:15;;;;;;;13.38;5.95;;;;;;;;;;4969504;28;20668;-62
2021/05/15 08:30:44;;;;;;;11.98;6.85;;;;;;;;;;4967278;28;20830;-63
2021/05/15 08:33:11;;;;;;;14.52;6.53;;;;;;;;;;4976467;28;20636;-62
2021/05/15 08:35:39;;;;;;;11.40;6.35;;;;;;;;;;4944993;28;20374;-63
2021/05/15 08:38:05;;;;;;;16.25;6.25;;;;;;;;;;4966785;28;20042;-64
2021/05/15 08:40:36;;;;;;;13.48;6.30;;;;;;;;;;4972854;28;20033;-62
2021/05/15 08:43:02;;;;;;;12.65;5.97;;;;;;;;;;4977504;28;20031;-64
2021/05/15 08:45:28;;;;;;;12.00;6.32;;;;;;;;;;4965464;28;20117;-63
2021/05/15 08:47:59;;;;;;;13.48;6.45;;;;;;;;;;4965318;28;20038;-62
2021/05/15 08:50:28;;;;;;;17.45;7.30;;;;;;;;;;4968910;28;20056;-63
2021/05/15 08:52:54;;;;;;;12.73;5.70;;;;;;;;;;4965548;28;20038;-63
2021/05/15 08:55:24;;;;;;;12.27;6.30;;;;;;;;;;4963991;28;20026;-64
2021/05/15 08:57:55;;;;;;;11.80;6.43;;;;;;;;;;4960833;28;20040;-62
2021/05/15 09:00:31;;;;;;;11.25;6.18;;;;;;;;;;4964481;28;20034;-62
2021/05/15 09:02:58;;;;;;;11.05;6.03;;;;;;;;;;4971273;28;20038;-63
2021/05/15 09:05:27;;;;;;;13.10;6.53;;;;;;;;;;4971637;28;20022;-63
2021/05/15 09:07:56;;;;;;;10.80;6.53;;;;;;;;;;4965242;28;20041;-62
2021/05/15 09:10:23;;;;;;;13.77;6.90;;;;;;;;;;4965141;28;20976;-64
2021/05/15 09:12:48;;;;;;;8.35;6.05;;;;;;;;;;4976451;28;20045;-64
2021/05/15 09:15:19;;;;;;;15.30;6.38;;;;;;;;;;4955308;28;20037;-63
2021/05/15 09:17:46;;;;;;;13.02;7.00;;;;;;;;;;4963659;28;20048;-65
2021/05/15 09:20:22;;;;;;;11.85;6.47;;;;;;;;;;4975381;28;20204;-65
2021/05/15 09:22:51;;;;;;;15.50;7.17;;;;;;;;;;4965559;28;20037;-66
2021/05/15 09:25:19;;;;;;;17.00;7.35;;;;;;;;;;4966748;28;20030;-64
2021/05/15 09:27:45;;;;;;;13.48;6.28;;;;;;;;;;4962168;28;20092;-62
2021/05/15 09:30:13;;;;;;;16.73;6.90;;;;;;;;;;4962423;28;20160;-62
2021/05/15 09:32:46;;;;;;;13.40;7.43;;;;;;;;;;4965758;28;20036;-62
2021/05/15 09:35:27;;;;;;;12.02;6.63;;;;;;;;;;4968443;28;20049;-63
2021/05/15 09:37:55;;;;;;;14.30;7.03;;;;;;;;;;4968351;28;20030;-63
2021/05/15 09:40:22;;;;;;;20.33;8.18;;;;;;;;;;4978411;28;20052;-64
2021/05/15 09:42:48;;;;;;;18.15;8.93;;;;;;;;;;4957730;28;20157;-68
2021/05/15 09:45:29;;;;;;;18.23;8.82;;;;;;;;;;4966959;28;20031;-66
2021/05/15 09:48:34;;;;;;;17.38;7.82;;;;;;;;;;4965756;28;20045;-63
2021/05/15 09:50:58;;;;;;;17.27;8.63;;;;;;;;;;4973320;28;20038;-64
2021/05/15 09:53:27;;;;;;;18.23;8.75;;;;;;;;;;4974383;28;20735;-63
2021/05/15 09:55:54;;;;;;;19.90;9.43;;;;;;;;;;4969547;28;20239;-62
2021/05/15 09:58:31;;;;;;;23.15;8.63;;;;;;;;;;4965928;28;20034;-61
2021/05/15 10:00:57;;;;;;;18.42;9.20;;;;;;;;;;4953556;28;20481;-61
2021/05/15 10:03:31;;;;;;;21.88;9.93;;;;;;;;;;4966404;28;20033;-62
2021/05/15 10:06:05;;;;;;;20.25;8.80;;;;;;;;;;4965846;28;20037;-62
2021/05/15 10:08:31;;;;;;;20.80;8.93;;;;;;;;;;4969778;28;20038;-63
2021/05/15 10:11:06;;;;;;;24.25;10.90;;;;;;;;;;4967090;28;20185;-61
2021/05/15 10:13:42;;;;;;;21.25;10.27;;;;;;;;;;4975223;28;20026;-61
2021/05/15 10:16:11;;;;;;;20.80;9.88;;;;;;;;;;4976494;28;20042;-61
2021/05/15 10:18:45;;;;;;;22.55;10.00;;;;;;;;;;4977005;28;20274;-62
2021/05/15 10:21:15;;;;;;;21.05;10.88;;;;;;;;;;4977058;28;20599;-61
2021/05/15 10:23:47;;;;;;;27.83;11.75;;;;;;;;;;4974599;28;20121;-62
2021/05/15 10:26:13;;;;;;;23.65;10.98;;;;;;;;;;4979331;28;20038;-61
2021/05/15 10:29:01;;;;;;;22.27;10.93;;;;;;;;;;4975656;28;21571;-61
2021/05/15 10:31:44;;;;;;;21.90;10.32;;;;;;;;;;4975800;28;20128;-61
2021/05/15 10:34:10;;;;;;;24.65;11.40;;;;;;;;;;4974627;28;20654;-61
2021/05/15 10:36:43;;;;;;;26.88;11.95;;;;;;;;;;4966785;28;20042;-61
2021/05/15 10:39:09;;;;;;;27.13;11.52;;;;;;;;;;4980832;28;20030;-61
2021/05/15 10:41:43;;;;;;;25.40;11.95;;;;;;;;;;4972251;28;20026;-60
2021/05/15 10:44:09;;;;;;;;;;;;;;;;;;4978125;28;20030;-59
2021/05/15 10:46:43;;;;;;;22.65;11.75;;;;;;;;;;4975439;28;19913;-62
2021/05/15 10:49:15;;;;;;;23.65;11.25;;;;;;;;;;4973192;28;20037;-61
2021/05/15 10:51:41;;;;;;;23.35;11.32;;;;;;;;;;4977636;28;20056;-61
2021/05/15 10:54:13;;;;;;;23.98;10.57;;;;;;;;;;4973377;28;20037;-61
2021/05/15 10:56:39;;;;;;;22.25;11.05;;;;;;;;;;4972387;28;20080;-61
2021/05/15 10:59:07;;;;;;;18.50;10.55;;;;;;;;;;4976230;28;20037;-62
2021/05/15 11:01:51;;;;;;;23.45;11.73;;;;;;;;;;4975455;28;20092;-61
2021/05/15 11:04:20;;;;;;;28.23;12.07;;;;;;;;;;4975058;28;20084;-61
2021/05/15 11:06:55;;;;;;;25.05;11.57;;;;;;;;;;4979369;28;20030;-61
2021/05/15 11:09:23;;;;;;;23.42;12.02;;;;;;;;;;4977608;28;20028;-62
2021/05/15 11:11:48;;;;;;;24.75;10.75;;;;;;;;;;4971565;28;20125;-61
2021/05/15 11:14:25;;;;;;;24.73;11.57;;;;;;;;;;4976042;28;20029;-62
2021/05/15 11:17:03;;;;;;;26.08;11.05;;;;;;;;;;4973775;28;20046;-61
2021/05/15 11:19:28;;;;;;;;;;;;;;;;;;4974221;28;20026;-62
2021/05/15 11:21:54;;;;;;;24.40;11.23;;;;;;;;;;4961468;28;20016;-61
2021/05/15 11:24:27;;;;;;;22.20;11.13;;;;;;;;;;4950889;28;20401;-61
2021/05/15 11:26:55;;;;;;;22.37;11.53;;;;;;;;;;4957648;28;20022;-63
2021/05/15 11:29:30;;;;;;;25.35;11.35;;;;;;;;;;4974081;28;20121;-60
2021/05/15 11:32:03;;;;;;;24.17;11.50;;;;;;;;;;4972638;28;20076;-65
2021/05/15 11:34:29;;;;;;;24.00;11.75;;;;;;;;;;4978144;28;20121;-61
2021/05/15 11:36:55;;;;;;;25.98;11.50;;;;;;;;;;4960534;28;20407;-61
2021/05/15 11:39:30;;;;;;;22.25;11.95;;;;;;;;;;4974848;28;20030;-59
2021/05/15 11:42:08;;;;;;;25.63;11.40;;;;;;;;;;4989097;28;20042;-62
2021/05/15 11:44:38;;;;;;;28.23;12.32;;;;;;;;;;4966763;28;20034;-60
2021/05/15 11:47:08;;;;;;;27.10;12.57;;;;;;;;;;4972079;28;20613;-61
2021/05/15 11:49:34;;;;;;;20.15;10.52;;;;;;;;;;4974023;28;20161;-61
2021/05/15 11:52:04;;;;;;;27.60;11.52;;;;;;;;;;4962360;28;20073;-61
2021/05/15 11:54:30;;;;;;;32.15;12.35;;;;;;;;;;4989902;28;20042;-63
2021/05/15 11:56:57;;;;;;;24.17;12.27;;;;;;;;;;4971492;28;20119;-61
2021/05/15 11:59:23;;;;;;;29.65;12.43;;;;;;;;;;4955240;28;20030;-62
2021/05/15 12:01:49;;;;;;;18.02;10.50;;;;;;;;;;4975257;28;20026;-61
2021/05/15 12:04:33;;;;;;;20.42;11.35;;;;;;;;;;4973554;28;20104;-62
2021/05/15 12:07:08;;;;;;;22.30;11.10;;;;;;;;;;4973852;28;20042;-62
2021/05/15 12:09:34;;;;;;;20.25;11.27;;;;;;;;;;4973015;28;20033;-62
2021/05/15 12:12:01;;;;;;;18.15;10.88;;;;;;;;;;4971302;28;20033;-63
2021/05/15 12:14:27;;;;;;;21.50;10.48;;;;;;;;;;4974678;28;20034;-60
2021/05/15 12:17:02;;;;;;;19.67;11.52;;;;;;;;;;4975507;28;20033;-61
2021/05/15 12:19:28;;;;;;;18.98;10.57;;;;;;;;;;4975157;28;22038;-62
2021/05/15 12:22:01;;;;;;;24.27;11.23;;;;;;;;;;4972996;28;20205;-62
2021/05/15 12:24:31;;;;;;;24.77;11.73;;;;;;;;;;4975391;28;20031;-62
2021/05/15 12:27:05;;;;;;;22.02;11.52;;;;;;;;;;4972952;28;20113;-61
2021/05/15 12:29:33;;;;;;;21.42;11.18;;;;;;;;;;4977356;28;20379;-62
2021/05/15 12:31:59;;;;;;;23.80;11.70;;;;;;;;;;4982110;28;20037;-61
2021/05/15 12:34:24;;;;;;;22.20;11.38;;;;;;;;;;4957969;28;20042;-61
2021/05/15 12:36:50;;;;;;;27.55;12.65;;;;;;;;;;4971706;28;20477;-61
2021/05/15 12:39:18;;;;;;;29.77;12.85;;;;;;;;;;4974414;28;20823;-61
2021/05/15 12:41:44;;;;;;;26.20;12.98;;;;;;;;;;4957499;28;20133;-60
2021/05/15 12:44:16;;;;;;;30.40;13.63;;;;;;;;;;4972782;28;20023;-59
2021/05/15 12:46:43;;;;;;;30.15;13.63;;;;;;;;;;4973502;28;20470;-62
2021/05/15 12:49:10;;;;;;;28.50;13.63;;;;;;;;;;4973388;28;20050;-60
2021/05/15 12:51:37;;;;;;;29.90;14.10;;;;;;;;;;4974955;28;21037;-59
2021/05/15 12:54:19;;;;;;;26.42;13.38;;;;;;;;;;4988034;28;20038;-61
2021/05/15 12:56:53;;;;;;;26.77;13.93;;;;;;;;;;4970896;28;20117;-60
2021/05/15 12:59:28;;;;;;;25.05;12.68;;;;;;;;;;4960310;28;20034;-61
2021/05/15 13:01:53;;;;;;;22.45;10.93;;;;;;;;;;4973868;28;20037;-61
2021/05/15 13:04:28;;;;;;;24.83;12.25;;;;;;;;;;4972345;28;21430;-60
2021/05/15 13:06:53;;;;;;;21.58;11.93;;;;;;;;;;4975945;28;20025;-61
2021/05/15 13:09:25;;;;;;;19.23;11.02;;;;;;;;;;4955629;28;20035;-60
2021/05/15 13:11:51;;;;;;;19.40;11.10;;;;;;;;;;4969005;28;20109;-60
2021/05/15 13:14:18;;;;;;;22.02;11.40;;;;;;;;;;4964158;28;20228;-60
2021/05/15 13:16:44;;;;;;;17.98;11.18;;;;;;;;;;4977391;28;20046;-61
2021/05/15 13:19:09;;;;;;;17.65;10.98;;;;;;;;;;4975866;28;20208;-59
2021/05/15 13:21:36;;;;;;;13.95;9.60;;;;;;;;;;4942782;28;20065;-60
2021/05/15 13:24:02;;;;;;;20.33;10.73;;;;;;;;;;4978187;28;20615;-61
2021/05/15 13:26:28;;;;;;;26.00;10.93;;;;;;;;;;4975802;28;20042;-59
2021/05/15 13:28:53;;;;;;;19.98;11.25;;;;;;;;;;4960433;28;20481;-58
2021/05/15 13:31:25;;;;;;;21.70;11.20;;;;;;;;;;4991231;28;20526;-61
2021/05/15 13:33:51;;;;;;;20.15;11.20;;;;;;;;;;4976718;28;20688;-61
2021/05/15 13:36:16;;;;;;;24.92;12.38;;;;;;;;;;4979062;28;20049;-61
2021/05/15 13:38:42;;;;;;;24.08;12.55;;;;;;;;;;4964019;28;20822;-60
2021/05/15 13:41:12;;;;;;;24.48;13.10;;;;;;;;;;4976523;28;20123;-63
2021/05/15 13:43:41;;;;;;;19.90;11.05;;;;;;;;;;4960264;28;20542;-62
2021/05/15 13:46:06;;;;;;;18.85;11.82;;;;;;;;;;4974875;28;20634;-62
2021/05/15 13:48:33;;;;;;;19.02;11.55;;;;;;;;;;4963113;28;20061;-62
2021/05/15 13:51:21;;;;;;;18.42;10.85;;;;;;;;;;4960321;28;20045;-62
2021/05/15 13:53:49;;;;;;;16.05;10.57;;;;;;;;;;4976028;28;20045;-63
2021/05/15 13:56:23;;;;;;;18.10;11.32;;;;;;;;;;4973364;28;20894;-64
2021/05/15 13:58:56;;;;;;;17.80;10.93;;;;;;;;;;4974762;28;20041;-61
2021/05/15 14:01:31;;;;;;;15.18;10.38;;;;;;;;;;4975520;28;20042;-63
2021/05/15 14:04:00;;;;;;;18.40;10.30;;;;;;;;;;4976477;28;20042;-62
2021/05/15 14:06:28;;;;;;;16.80;11.18;;;;;;;;;;4988090;28;20026;-62
2021/05/15 14:08:56;;;;;;;16.63;10.50;;;;;;;;;;4950512;28;20041;-62
2021/05/15 14:11:28;;;;;;;15.48;10.25;;;;;;;;;;4977863;28;20033;-63
2021/05/15 14:13:54;;;;;;;15.07;9.25;;;;;;;;;;4974151;28;20042;-64
2021/05/15 14:16:19;;;;;;;11.07;8.05;;;;;;;;;;4975273;28;20021;-62
2021/05/15 14:18:48;;;;;;;15.10;9.15;;;;;;;;;;4975618;28;20545;-64
2021/05/15 14:21:13;;;;;;;11.77;7.60;;;;;;;;;;4963427;28;20030;-63
2021/05/15 14:23:39;;;;;;;12.15;8.40;;;;;;;;;;4963264;28;20045;-62
2021/05/15 14:26:10;;;;;;;14.00;8.57;;;;;;;;;;4974640;28;20150;-62
2021/05/15 14:28:42;;;;;;;13.98;9.40;;;;;;;;;;4975283;28;20045;-65
2021/05/15 14:31:08;;;;;;;10.82;7.93;;;;;;;;;;4973388;28;20637;-62
2021/05/15 14:33:37;;;;;;;12.23;8.70;;;;;;;;;;4973513;28;20051;-62
2021/05/15 14:36:03;;;;;;;12.00;8.52;;;;;;;;;;4973811;28;20022;-63
2021/05/15 14:38:28;;;;;;;16.63;8.75;;;;;;;;;;4959126;28;20030;-64
2021/05/15 14:40:57;;;;;;;13.15;8.15;;;;;;;;;;4956328;28;20037;-62
2021/05/15 14:43:22;;;;;;;17.05;10.07;;;;;;;;;;4961181;28;22135;-65